createdAt,value
2018-02-24T00:00:17.474Z,29.33
2018-02-24T00:02:45.047Z,28.43
2018-02-24T00:05:12.690Z,28.73
2018-02-24T00:07:40.227Z,30.53
2018-02-24T00:10:07.867Z,27.97
2018-02-24T00:12:35.426Z,27.17
2018-02-24T00:15:03.027Z,28.47
2018-02-24T00:17:30.625Z,30.33
2018-02-24T00:19:58.231Z,28.63
2018-02-24T00:22:25.803Z,29.13
2018-02-24T00:24:53.390Z,28.93
2018-02-24T00:27:21.078Z,27.73
2018-02-24T00:29:48.680Z,30.93
2018-02-24T00:32:16.275Z,32.47
2018-02-24T00:34:44.706Z,30.97
2018-02-24T00:37:12.403Z,28.00
2018-02-24T00:39:40.031Z,30.87
2018-02-24T00:42:07.596Z,29.53
2018-02-24T00:44:35.959Z,30.27
2018-02-24T00:47:03.540Z,29.37
2018-02-24T00:49:31.161Z,31.90
2018-02-24T00:51:58.734Z,29.57
2018-02-24T00:54:26.335Z,27.37
2018-02-24T00:56:53.914Z,26.57
2018-02-24T00:59:21.515Z,31.60
2018-02-24T01:01:49.856Z,27.13
2018-02-24T01:04:17.420Z,27.80
2018-02-24T01:06:45.086Z,26.73
2018-02-24T01:09:12.667Z,27.37
2018-02-24T01:11:40.259Z,26.87
2018-02-24T01:14:07.842Z,27.53
2018-02-24T01:16:35.443Z,29.10
2018-02-24T01:19:03.771Z,28.53
2018-02-24T01:21:31.491Z,27.90
2018-02-24T01:23:59.847Z,31.30
2018-02-24T01:26:27.448Z,24.77
2018-02-24T01:28:55.041Z,29.03
2018-02-24T01:31:23.409Z,29.43
2018-02-24T01:33:50.999Z,29.00
2018-02-24T01:36:19.366Z,32.77
2018-02-24T01:38:46.948Z,31.73
2018-02-24T01:41:14.539Z,29.63
2018-02-24T01:43:42.872Z,33.97
2018-02-24T01:46:10.476Z,31.50
2018-02-24T01:48:38.130Z,30.13
2018-02-24T01:51:05.786Z,27.77
2018-02-24T01:53:33.458Z,29.10
2018-02-24T01:56:01.051Z,27.93
2018-02-24T01:58:28.622Z,30.37
2018-02-24T02:00:56.214Z,32.47
2018-02-24T02:03:23.842Z,30.90
2018-02-24T02:05:51.438Z,29.80
2018-02-24T02:08:19.099Z,32.47
2018-02-24T02:10:46.723Z,30.83
2018-02-24T02:13:15.171Z,28.83
2018-02-24T02:15:42.901Z,28.27
2018-02-24T02:18:11.239Z,31.97
2018-02-24T02:20:38.857Z,27.23
2018-02-24T02:23:07.211Z,30.63
2018-02-24T02:25:34.783Z,29.53
2018-02-24T02:28:02.414Z,31.63
2018-02-24T02:30:29.991Z,27.80
2018-02-24T02:32:57.606Z,27.90
2018-02-24T02:35:25.184Z,32.23
2018-02-24T02:37:52.784Z,30.50
2018-02-24T02:40:21.123Z,29.40
2018-02-24T02:42:48.718Z,29.90
2018-02-24T02:45:16.287Z,29.13
2018-02-24T02:47:43.886Z,32.83
2018-02-24T02:50:12.255Z,33.77
2018-02-24T02:52:39.859Z,33.70
2018-02-24T02:55:08.210Z,29.13
2018-02-24T02:57:35.802Z,28.90
2018-02-24T03:00:03.383Z,27.87
2018-02-24T03:02:31.745Z,31.70
2018-02-24T03:04:59.315Z,33.63
2018-02-24T03:07:26.975Z,30.07
2018-02-24T03:09:54.538Z,31.97
2018-02-24T03:12:22.221Z,31.50
2018-02-24T03:14:49.803Z,30.60
2018-02-24T03:17:17.454Z,30.17
2018-02-24T03:19:45.775Z,29.63
2018-02-24T03:22:13.427Z,31.37
2018-02-24T03:24:40.998Z,31.83
2018-02-24T03:27:08.589Z,36.10
2018-02-24T03:29:36.195Z,31.73
2018-02-24T03:32:04.530Z,30.07
2018-02-24T03:34:32.163Z,33.30
2018-02-24T03:37:00.595Z,31.63
2018-02-24T03:39:28.195Z,34.07
2018-02-24T03:41:55.792Z,33.63
2018-02-24T03:44:23.378Z,38.33
2018-02-24T03:46:50.969Z,27.67
2018-02-24T03:49:18.570Z,33.83
2018-02-24T03:51:46.141Z,34.07
2018-02-24T03:54:13.730Z,30.70
2018-02-24T03:56:41.296Z,33.40
2018-02-24T03:59:08.898Z,34.30
2018-02-24T04:01:36.476Z,32.63
2018-02-24T04:04:04.855Z,33.23
2018-02-24T04:06:32.432Z,29.97
2018-02-24T04:09:01.039Z,35.07
2018-02-24T04:11:29.442Z,33.63
2018-02-24T04:13:57.023Z,33.33
2018-02-24T04:16:25.492Z,33.20
2018-02-24T04:18:55.461Z,36.37
2018-02-24T04:21:23.035Z,33.30
2018-02-24T04:23:50.602Z,35.33
2018-02-24T04:26:18.251Z,31.60
2018-02-24T04:28:46.594Z,33.97
2018-02-24T04:31:14.262Z,34.87
2018-02-24T04:33:41.847Z,34.33
2018-02-24T04:36:09.451Z,32.53
2018-02-24T04:38:37.908Z,34.10
2018-02-24T04:41:05.490Z,36.50
2018-02-24T04:46:06.079Z,28.60
2018-02-24T04:48:33.652Z,30.73
2018-02-24T04:51:01.230Z,31.37
2018-02-24T04:53:29.579Z,33.90
2018-02-24T04:55:57.218Z,34.83
2018-02-24T04:58:24.808Z,30.77
2018-02-24T05:00:52.377Z,33.43
2018-02-24T05:03:19.945Z,31.77
2018-02-24T05:05:47.580Z,34.03
2018-02-24T05:08:15.916Z,29.97
2018-02-24T05:10:43.522Z,31.73
2018-02-24T05:13:11.094Z,26.53
2018-02-24T05:15:38.934Z,33.10
2018-02-24T05:18:06.516Z,31.90
2018-02-24T05:20:34.096Z,32.97
2018-02-24T05:23:01.721Z,31.90
2018-02-24T05:25:30.112Z,36.03
2018-02-24T05:27:58.469Z,30.07
2018-02-24T05:30:26.047Z,33.97
2018-02-24T05:32:53.699Z,36.03
2018-02-24T05:35:21.279Z,36.73
2018-02-24T05:37:48.846Z,31.33
2018-02-24T05:40:16.414Z,36.00
2018-02-24T05:42:44.088Z,35.00
2018-02-24T05:45:11.666Z,27.30
2018-02-24T05:47:39.388Z,33.27
2018-02-24T05:50:07.732Z,34.50
2018-02-24T05:52:35.310Z,32.30
2018-02-24T05:55:02.899Z,30.43
2018-02-24T05:57:30.496Z,33.53
2018-02-24T05:59:58.850Z,28.03
2018-02-24T06:02:26.477Z,31.07
2018-02-24T06:04:54.082Z,29.23
2018-02-24T06:07:21.675Z,31.23
2018-02-24T06:09:49.275Z,29.53
2018-02-24T06:12:18.456Z,30.90
2018-02-24T06:14:46.048Z,31.40
2018-02-24T06:17:14.430Z,33.80
2018-02-24T06:19:42.097Z,35.10
2018-02-24T06:22:09.664Z,30.20
2018-02-24T06:24:37.243Z,28.57
2018-02-24T06:27:05.670Z,31.27
2018-02-24T06:29:33.261Z,37.20
2018-02-24T06:32:00.866Z,28.50
2018-02-24T06:34:28.454Z,27.33
2018-02-24T06:36:56.070Z,34.03
2018-02-24T06:39:23.647Z,31.20
2018-02-24T06:41:51.226Z,30.03
2018-02-24T06:44:18.820Z,27.90
2018-02-24T06:46:46.392Z,26.33
2018-02-24T06:49:13.984Z,26.77
2018-02-24T06:51:41.587Z,29.13
2018-02-24T06:54:09.959Z,26.17
2018-02-24T06:56:37.675Z,30.97
2018-02-24T06:59:05.249Z,28.50
2018-02-24T07:01:32.823Z,30.73
2018-02-24T07:04:00.437Z,28.43
2018-02-24T07:06:28.117Z,27.53
2018-02-24T07:08:56.663Z,27.53
2018-02-24T07:11:24.468Z,24.97
2018-02-24T07:13:52.048Z,31.93
2018-02-24T07:16:19.626Z,26.23
2018-02-24T07:18:47.210Z,25.90
2018-02-24T07:21:14.789Z,22.60
2018-02-24T07:23:43.132Z,28.87
2018-02-24T07:26:10.776Z,26.33
2018-02-24T07:28:38.982Z,26.77
2018-02-24T07:31:07.255Z,26.10
2018-02-24T07:33:34.842Z,23.53
2018-02-24T07:36:02.447Z,25.60
2018-02-24T07:38:30.077Z,22.43
2018-02-24T07:40:57.663Z,25.20
2018-02-24T07:43:25.253Z,28.00
2018-02-24T07:46:31.751Z,26.20
2018-02-24T07:48:59.408Z,23.57
2018-02-24T07:51:27.481Z,28.77
2018-02-24T07:53:55.138Z,24.90
2018-02-24T07:56:22.751Z,19.97
2018-02-24T07:58:50.967Z,22.17
2018-02-24T08:01:18.569Z,21.10
2018-02-24T08:03:46.156Z,27.43
2018-02-24T08:06:13.913Z,28.93
2018-02-24T08:08:41.512Z,24.53
2018-02-24T08:11:09.129Z,25.73
2018-02-24T08:13:36.767Z,20.43
2018-02-24T08:16:04.495Z,23.97
2018-02-24T08:18:32.850Z,24.67
2018-02-24T08:21:00.495Z,23.73
2018-02-24T08:23:28.139Z,27.10
2018-02-24T08:25:57.919Z,25.50
2018-02-24T08:28:25.979Z,23.27
2018-02-24T08:30:54.418Z,26.20
2018-02-24T08:33:22.037Z,20.60
2018-02-24T08:35:49.631Z,18.00
2018-02-24T08:38:17.218Z,21.03
2018-02-24T08:40:44.885Z,21.50
2018-02-24T08:43:12.483Z,23.93
2018-02-24T08:45:40.143Z,20.27
2018-02-24T08:48:07.715Z,23.80
2018-02-24T08:50:35.453Z,18.10
2018-02-24T08:53:03.103Z,24.43
2018-02-24T08:55:30.754Z,20.07
2018-02-24T08:57:58.378Z,19.43
2018-02-24T09:00:26.025Z,19.53
2018-02-24T09:02:53.654Z,21.03
2018-02-24T09:05:21.540Z,18.13
2018-02-24T09:07:49.889Z,18.30
2018-02-24T09:10:17.475Z,15.90
2018-02-24T09:12:45.082Z,15.60
2018-02-24T09:15:12.653Z,18.47
2018-02-24T09:17:40.288Z,16.07
2018-02-24T09:20:08.051Z,14.70
2018-02-24T09:22:36.081Z,14.57
2018-02-24T09:25:03.826Z,15.77
2018-02-24T09:27:31.451Z,15.00
2018-02-24T09:29:59.437Z,15.30
2018-02-24T09:32:27.900Z,15.40
2018-02-24T09:34:55.581Z,12.70
2018-02-24T09:37:23.515Z,14.23
2018-02-24T09:39:51.108Z,9.50
2018-02-24T09:42:18.721Z,11.60
2018-02-24T09:44:46.437Z,15.83
2018-02-24T09:47:14.041Z,12.23
2018-02-24T09:49:41.644Z,12.30
2018-02-24T09:52:10.890Z,13.20
2018-02-24T09:54:39.218Z,13.07
2018-02-24T09:57:07.179Z,11.27
2018-02-24T09:59:36.199Z,12.93
2018-02-24T10:02:04.133Z,12.00
2018-02-24T10:04:33.583Z,8.57
2018-02-24T10:07:02.016Z,8.87
2018-02-24T10:09:30.721Z,10.30
2018-02-24T10:12:00.107Z,7.43
2018-02-24T10:14:28.647Z,9.30
2018-02-24T10:16:59.767Z,9.73
2018-02-24T10:19:29.348Z,8.63
2018-02-24T10:21:58.589Z,12.47
2018-02-24T10:24:27.286Z,14.97
2018-02-24T10:26:54.897Z,7.77
2018-02-24T10:29:22.511Z,8.57
2018-02-24T10:31:50.248Z,7.53
2018-02-24T10:34:17.812Z,7.40
2018-02-24T10:36:45.481Z,8.13
2018-02-24T10:39:13.814Z,7.63
2018-02-24T10:41:41.420Z,7.80
2018-02-24T10:44:09.379Z,9.30
2018-02-24T10:46:37.008Z,8.30
2018-02-24T10:49:14.507Z,6.20
2018-02-24T10:51:42.954Z,8.07
2018-02-24T10:54:10.566Z,5.50
2018-02-24T10:56:39.374Z,6.37
2018-02-24T10:59:07.744Z,8.07
2018-02-24T11:01:35.364Z,7.20
2018-02-24T11:04:03.004Z,8.13
2018-02-24T11:06:30.712Z,7.20
2018-02-24T11:08:58.352Z,6.47
2018-02-24T11:11:25.958Z,6.73
2018-02-24T11:13:54.116Z,7.03
2018-02-24T11:16:22.444Z,5.97
2018-02-24T11:18:50.407Z,6.70
2018-02-24T11:21:18.012Z,6.93
2018-02-24T11:23:45.613Z,6.37
2018-02-24T11:26:13.195Z,8.00
2018-02-24T11:28:40.826Z,7.27
2018-02-24T11:31:08.462Z,7.20
2018-02-24T11:33:36.819Z,6.13
2018-02-24T11:36:04.390Z,6.93
2018-02-24T11:38:31.992Z,7.00
2018-02-24T11:40:59.610Z,6.17
2018-02-24T11:43:27.390Z,7.70
2018-02-24T11:45:55.851Z,8.73
2018-02-24T11:48:24.289Z,9.57
2018-02-24T11:50:52.892Z,8.23
2018-02-24T11:53:20.517Z,7.03
2018-02-24T11:55:50.993Z,7.70
2018-02-24T11:58:19.230Z,9.40
2018-02-24T12:00:47.372Z,6.50
2018-02-24T12:03:15.743Z,8.53
2018-02-24T12:05:44.294Z,7.97
2018-02-24T12:08:12.008Z,9.03
2018-02-24T12:10:39.586Z,7.60
2018-02-24T12:13:07.244Z,10.43
2018-02-24T12:15:34.840Z,10.57
2018-02-24T12:18:03.196Z,11.63
2018-02-24T12:20:30.785Z,9.27
2018-02-24T12:22:58.421Z,10.60
2018-02-24T12:25:26.772Z,8.07
2018-02-24T12:27:54.370Z,12.03
2018-02-24T12:30:22.723Z,11.27
2018-02-24T12:32:50.339Z,9.80
2018-02-24T12:35:18.753Z,10.30
2018-02-24T12:37:46.371Z,8.57
2018-02-24T12:40:13.949Z,10.07
2018-02-24T12:42:41.590Z,9.57
2018-02-24T12:45:09.169Z,9.30
2018-02-24T12:47:36.796Z,10.27
2018-02-24T12:50:05.186Z,11.43
2018-02-24T12:52:33.565Z,12.23
2018-02-24T12:55:01.505Z,12.70
2018-02-24T12:57:29.784Z,10.60
2018-02-24T12:59:59.097Z,10.43
2018-02-24T13:02:28.392Z,14.90
2018-02-24T13:04:57.791Z,13.60
2018-02-24T13:07:25.930Z,16.23
2018-02-24T13:09:53.888Z,15.33
2018-02-24T13:12:24.078Z,14.30
2018-02-24T13:14:52.510Z,15.40
2018-02-24T13:17:20.106Z,13.17
2018-02-24T13:22:46.440Z,12.30
2018-02-24T13:25:15.252Z,11.70
2018-02-24T13:27:44.934Z,12.63
2018-02-24T13:30:13.077Z,12.93
2018-02-24T13:32:46.955Z,11.23
2018-02-24T13:35:14.560Z,9.37
2018-02-24T13:37:43.571Z,10.07
2018-02-24T13:40:12.579Z,7.50
2018-02-24T13:42:41.015Z,9.43
2018-02-24T13:45:10.134Z,8.93
2018-02-24T13:47:40.257Z,10.87
2018-02-24T13:50:09.996Z,8.50
2018-02-24T13:52:38.307Z,10.93
2018-02-24T13:55:06.486Z,11.37
2018-02-24T13:57:34.636Z,9.70
2018-02-24T14:00:02.292Z,8.20
2018-02-24T14:02:30.326Z,7.70
2018-02-24T14:04:59.664Z,7.67
2018-02-24T14:07:29.079Z,9.07
2018-02-24T14:09:58.132Z,8.80
2018-02-24T14:12:27.473Z,11.87
2018-02-24T14:14:55.504Z,11.03
2018-02-24T14:17:23.584Z,11.67
2018-02-24T14:19:52.576Z,11.17
2018-02-24T14:22:21.328Z,10.73
2018-02-24T14:24:48.986Z,7.77
2018-02-24T14:27:17.784Z,8.73
2018-02-24T14:29:46.732Z,8.10
2018-02-24T14:32:16.491Z,7.00
2018-02-24T14:34:44.486Z,7.43
2018-02-24T14:37:12.284Z,8.83
2018-02-24T14:39:41.216Z,7.90
2018-02-24T14:42:09.891Z,7.47
2018-02-24T14:44:38.673Z,8.60
2018-02-24T14:47:07.749Z,7.30
2018-02-24T14:49:35.850Z,6.93
2018-02-24T14:52:04.222Z,7.03
2018-02-24T14:54:32.421Z,6.60
2018-02-24T14:57:00.700Z,6.93
2018-02-24T14:59:29.044Z,6.53
2018-02-24T15:01:58.438Z,7.70
2018-02-24T15:04:27.532Z,6.63
2018-02-24T15:06:56.717Z,7.43
2018-02-24T15:09:25.611Z,6.50
2018-02-24T15:11:53.784Z,8.27
2018-02-24T15:14:22.752Z,7.10
2018-02-24T15:16:50.850Z,6.60
2018-02-24T15:19:19.102Z,7.00
2018-02-24T15:21:47.535Z,6.80
2018-02-24T15:24:17.077Z,6.07
2018-02-24T15:26:45.264Z,6.00
2018-02-24T15:29:13.448Z,5.47
2018-02-24T15:31:42.852Z,5.57
2018-02-24T15:34:11.610Z,5.13
2018-02-24T15:36:40.037Z,6.30
2018-02-24T15:39:08.434Z,5.00
2018-02-24T15:41:37.424Z,6.10
2018-02-24T15:44:06.249Z,4.97
2018-02-24T15:46:34.529Z,4.57
2018-02-24T15:49:02.892Z,4.83
2018-02-24T15:51:32.767Z,3.90
2018-02-24T15:54:02.688Z,5.50
2018-02-24T15:56:30.919Z,4.93
2018-02-24T15:58:59.468Z,5.40
2018-02-24T16:01:28.223Z,10.30
2018-02-24T16:03:56.473Z,3.53
2018-02-24T16:06:25.441Z,5.83
2018-02-24T16:08:55.411Z,4.30
2018-02-24T16:11:23.498Z,4.33
2018-02-24T16:13:52.291Z,2.67
2018-02-24T16:16:20.994Z,3.63
2018-02-24T16:18:48.968Z,6.90
2018-02-24T16:21:17.217Z,6.83
2018-02-24T16:23:46.163Z,4.20
2018-02-24T16:26:14.167Z,3.00
2018-02-24T16:28:41.984Z,5.73
2018-02-24T16:31:10.348Z,3.47
2018-02-24T16:33:38.348Z,4.80
2018-02-24T16:36:06.632Z,5.47
2018-02-24T16:38:35.718Z,4.57
2018-02-24T16:41:03.368Z,2.53
2018-02-24T16:43:33.183Z,5.20
2018-02-24T16:46:01.196Z,4.53
2018-02-24T16:48:29.219Z,10.70
2018-02-24T16:50:56.863Z,12.13
2018-02-24T16:53:24.459Z,10.27
2018-02-24T16:55:52.038Z,6.77
2018-02-24T16:58:20.329Z,9.67
2018-02-24T17:00:49.537Z,8.20
2018-02-24T17:03:17.696Z,4.33
2018-02-24T17:05:46.705Z,3.97
2018-02-24T17:08:14.352Z,2.40
2018-02-24T17:10:41.929Z,5.27
2018-02-24T17:13:10.184Z,4.43
2018-02-24T17:15:37.972Z,4.20
2018-02-24T17:18:05.679Z,3.67
2018-02-24T17:20:34.508Z,9.27
2018-02-24T17:23:02.838Z,6.57
2018-02-24T17:25:31.300Z,16.30
2018-02-24T17:28:00.582Z,14.10
2018-02-24T17:30:28.206Z,2.97
2018-02-24T17:32:56.164Z,4.93
2018-02-24T17:35:23.916Z,6.53
2018-02-24T17:37:52.504Z,4.70
2018-02-24T17:40:20.075Z,9.77
2018-02-24T17:42:48.722Z,6.30
2018-02-24T17:45:16.320Z,6.77
2018-02-24T17:47:44.526Z,6.90
2018-02-24T17:50:12.149Z,7.57
2018-02-24T17:52:39.723Z,4.23
2018-02-24T17:55:08.012Z,7.27
2018-02-24T17:57:35.647Z,4.10
2018-02-24T18:00:03.226Z,6.10
2018-02-24T18:02:31.561Z,3.63
2018-02-24T18:04:59.714Z,3.00
2018-02-24T18:07:27.541Z,4.50
2018-02-24T18:09:55.126Z,4.27
2018-02-24T18:12:23.266Z,4.00
2018-02-24T18:14:50.880Z,5.07
2018-02-24T18:17:18.506Z,8.07
2018-02-24T18:19:46.140Z,6.97
2018-02-24T18:22:13.716Z,20.77
2018-02-24T18:24:42.374Z,22.57
2018-02-24T18:27:12.211Z,10.30
2018-02-24T18:29:40.492Z,7.77
2018-02-24T18:32:08.162Z,4.90
2018-02-24T18:34:36.495Z,3.90
2018-02-24T18:37:04.085Z,5.63
2018-02-24T18:39:31.651Z,4.90
2018-02-24T18:42:00.172Z,5.40
2018-02-24T18:44:27.903Z,5.07
2018-02-24T18:46:55.499Z,5.87
2018-02-24T18:49:23.157Z,4.53
2018-02-24T18:51:50.743Z,7.50
2018-02-24T18:54:18.320Z,5.17
2018-02-24T18:56:50.205Z,3.57
2018-02-24T18:59:18.882Z,6.17
2018-02-24T19:01:46.670Z,7.13
2018-02-24T19:04:15.361Z,5.07
2018-02-24T19:06:43.955Z,4.63
2018-02-24T19:09:11.676Z,3.87
2018-02-24T19:11:39.692Z,5.50
2018-02-24T19:14:08.027Z,6.37
2018-02-24T19:16:35.586Z,4.60
2018-02-24T19:19:03.175Z,4.60
2018-02-24T19:21:30.839Z,9.30
2018-02-24T19:23:59.029Z,13.00
2018-02-24T19:26:28.496Z,16.33
2018-02-24T19:28:56.856Z,6.10
2018-02-24T19:31:24.430Z,8.73
2018-02-24T19:33:52.003Z,7.33
2018-02-24T19:36:19.648Z,5.87
2018-02-24T19:38:47.207Z,4.37
2018-02-24T19:41:16.110Z,4.17
2018-02-24T19:43:43.730Z,3.53
2018-02-24T19:46:11.292Z,4.47
2018-02-24T19:48:39.316Z,2.87
2018-02-24T19:51:07.648Z,5.33
2018-02-24T20:17:31.600Z,4.30
2018-02-24T20:42:06.307Z,9.70
2018-02-24T20:44:35.350Z,4.37
2018-02-24T20:47:03.437Z,4.37
2018-02-24T20:49:31.628Z,4.00
2018-02-24T20:51:59.771Z,3.63
2018-02-24T20:54:28.651Z,4.60
2018-02-24T20:56:57.464Z,2.93
2018-02-24T20:59:27.212Z,4.00
2018-02-24T21:01:55.260Z,4.77
2018-02-24T21:04:23.393Z,4.90
2018-02-24T21:06:51.513Z,6.27
2018-02-24T21:09:19.907Z,6.43
2018-02-24T21:11:47.580Z,4.23
2018-02-24T21:14:15.452Z,4.07
2018-02-24T21:16:43.514Z,4.43
2018-02-24T21:19:11.678Z,4.33
2018-02-24T21:21:39.893Z,6.50
2018-02-24T21:24:07.522Z,4.77
2018-02-24T21:26:36.428Z,5.43
2018-02-24T21:29:04.367Z,3.93
2018-02-24T21:31:32.410Z,4.07
2018-02-24T21:34:01.812Z,3.83
2018-02-24T21:36:29.984Z,3.60
2018-02-24T21:38:58.079Z,4.17
2018-02-24T21:41:26.940Z,3.93
2018-02-24T21:43:55.674Z,5.23
2018-02-24T21:46:23.748Z,4.33
2018-02-24T21:48:51.310Z,5.80
2018-02-24T21:51:19.464Z,3.87
2018-02-24T21:53:47.092Z,5.40
2018-02-24T21:56:15.296Z,5.80
2018-02-24T21:58:42.913Z,5.83
2018-02-24T22:01:10.916Z,5.17
2018-02-24T22:03:38.910Z,8.57
2018-02-24T22:06:07.116Z,4.77
2018-02-24T22:08:35.101Z,3.57
2018-02-24T22:11:03.243Z,4.20
2018-02-24T22:13:32.024Z,5.30
2018-02-24T22:16:00.124Z,5.20
2018-02-24T22:18:28.902Z,4.30
2018-02-24T22:20:57.694Z,7.13
2018-02-24T22:23:26.116Z,6.67
2018-02-24T22:25:54.265Z,5.47
2018-02-24T22:28:22.774Z,5.63
2018-02-24T22:30:50.863Z,6.17
2018-02-24T22:33:19.824Z,5.40
2018-02-24T22:35:48.256Z,5.30
2018-02-24T22:38:16.340Z,4.50
2018-02-24T22:40:44.582Z,5.97
2018-02-24T22:43:12.751Z,5.40
2018-02-24T22:45:42.086Z,5.63
2018-02-24T22:48:15.745Z,6.00
2018-02-24T22:50:44.820Z,6.50
2018-02-24T22:53:14.933Z,5.93
2018-02-24T22:55:44.209Z,4.40
2018-02-24T22:58:13.075Z,6.23
2018-02-24T23:00:42.011Z,5.60
2018-02-24T23:03:12.097Z,6.30
2018-02-24T23:05:40.533Z,5.90
2018-02-24T23:08:08.878Z,5.50
2018-02-24T23:10:36.909Z,6.17
2018-02-24T23:13:05.725Z,6.07
2018-02-24T23:15:34.582Z,6.00
2018-02-24T23:18:03.694Z,7.47
2018-02-24T23:20:31.867Z,7.03
2018-02-24T23:22:59.955Z,6.40
2018-02-24T23:25:28.248Z,7.47
2018-02-24T23:27:57.746Z,7.13
2018-02-24T23:30:25.767Z,6.03
2018-02-24T23:32:54.933Z,8.63
2018-02-24T23:35:24.387Z,5.97
2018-02-24T23:37:52.417Z,7.83
2018-02-24T23:40:20.355Z,8.83
2018-02-24T23:42:47.955Z,6.07
2018-02-24T23:45:15.519Z,6.30
2018-02-24T23:47:43.141Z,6.63
2018-02-24T23:50:11.477Z,5.70
2018-02-24T23:52:39.097Z,6.13
2018-02-24T23:55:07.423Z,5.87
2018-02-24T23:57:35.244Z,5.70
